createdAt,value
2022-10-17T00:00:47.242Z,101907.75
2022-10-17T00:03:51.097Z,101912.06
2022-10-17T00:06:56.239Z,101926.91
2022-10-17T00:09:59.787Z,101936.53
2022-10-17T00:13:03.930Z,101938.22
2022-10-17T00:16:09.301Z,101940.78
2022-10-17T00:19:12.917Z,101928.47
2022-10-17T00:22:18.156Z,101927.50
2022-10-17T00:25:21.999Z,101923.03
2022-10-17T00:28:25.650Z,101930.91
2022-10-17T00:31:29.315Z,101925.63
2022-10-17T00:34:32.895Z,101927.41
2022-10-17T00:37:37.941Z,101937.06
2022-10-17T00:40:41.579Z,101930.00
2022-10-17T00:43:58.625Z,101938.81
2022-10-17T00:47:06.102Z,101931.78
2022-10-17T00:50:10.888Z,101930.94
2022-10-17T00:53:17.220Z,101927.50
2022-10-17T00:56:22.468Z,101918.81
2022-10-17T00:59:27.783Z,101904.94
2022-10-17T01:02:31.710Z,101925.97
2022-10-17T01:05:36.052Z,101926.91
2022-10-17T01:08:42.137Z,101932.25
2022-10-17T01:11:54.745Z,101926.06
2022-10-17T01:15:14.028Z,101930.41
2022-10-17T01:18:33.910Z,101936.47
2022-10-17T01:21:53.273Z,101939.84
2022-10-17T01:25:31.273Z,101941.59
2022-10-17T01:29:09.503Z,101938.78
2022-10-17T01:32:19.924Z,101932.66
2022-10-17T01:35:30.530Z,101934.25
2022-10-17T01:38:40.209Z,101939.59
2022-10-17T01:41:50.849Z,101929.00
2022-10-17T01:45:00.734Z,101916.63
2022-10-17T01:48:12.767Z,101905.13
2022-10-17T01:51:22.876Z,101897.16
2022-10-17T01:54:34.052Z,101899.00
2022-10-17T01:57:45.236Z,101892.81
2022-10-17T02:00:51.157Z,101898.09
2022-10-17T02:03:59.362Z,101883.16
2022-10-17T02:07:09.029Z,101883.16
2022-10-17T02:10:23.006Z,101877.91
2022-10-17T02:13:43.368Z,101880.50
2022-10-17T02:17:06.332Z,101877.09
2022-10-17T02:20:25.077Z,101866.56
2022-10-17T02:23:39.067Z,101863.94
2022-10-17T02:26:51.446Z,101861.28
2022-10-17T02:30:04.667Z,101848.91
2022-10-17T02:33:14.919Z,101840.81
2022-10-17T02:36:26.572Z,101849.38
2022-10-17T02:39:32.857Z,101844.22
2022-10-17T02:42:37.817Z,101849.50
2022-10-17T02:45:42.896Z,101842.56
2022-10-17T02:48:52.096Z,101834.81
2022-10-17T02:52:07.283Z,101834.94
2022-10-17T02:55:19.281Z,101829.44
2022-10-17T02:58:32.410Z,101842.91
2022-10-17T03:01:38.010Z,101837.69
2022-10-17T03:04:45.133Z,101830.78
2022-10-17T03:07:50.586Z,101831.75
2022-10-17T03:10:54.426Z,101837.88
2022-10-17T03:13:58.085Z,101825.72
2022-10-17T03:17:01.724Z,101826.59
2022-10-17T03:20:07.237Z,101830.16
2022-10-17T03:23:12.272Z,101825.06
2022-10-17T03:26:15.895Z,101833.09
2022-10-17T03:29:19.551Z,101829.69
2022-10-17T03:32:23.177Z,101819.25
2022-10-17T03:35:27.269Z,101825.41
2022-10-17T03:38:32.259Z,101823.75
2022-10-17T03:41:36.442Z,101826.41
2022-10-17T03:44:40.060Z,101822.94
2022-10-17T03:47:43.631Z,101833.47
2022-10-17T03:50:47.306Z,101831.69
2022-10-17T03:53:52.581Z,101837.91
2022-10-17T04:00:00.695Z,101842.47
2022-10-17T04:03:04.406Z,101851.31
2022-10-17T04:06:09.140Z,101847.03
2022-10-17T04:09:14.604Z,101853.22
2022-10-17T04:12:18.352Z,101856.78
2022-10-17T04:15:21.876Z,101853.44
2022-10-17T04:18:25.943Z,101852.66
2022-10-17T04:21:30.701Z,101841.34
2022-10-17T04:24:35.915Z,101840.50
2022-10-17T04:27:39.529Z,101831.72
2022-10-17T04:30:45.461Z,101834.38
2022-10-17T04:33:51.359Z,101830.84
2022-10-17T04:36:54.929Z,101833.50
2022-10-17T04:39:59.867Z,101839.63
2022-10-17T04:43:03.641Z,101835.28
2022-10-17T04:46:10.671Z,101837.91
2022-10-17T04:49:14.720Z,101838.72
2022-10-17T04:52:18.347Z,101841.38
2022-10-17T04:55:24.371Z,101836.13
2022-10-17T04:58:29.912Z,101833.44
2022-10-17T05:01:33.579Z,101837.84
2022-10-17T05:04:37.339Z,101836.06
2022-10-17T05:07:41.807Z,101845.66
2022-10-17T05:10:47.527Z,101840.44
2022-10-17T05:13:56.092Z,101834.09
2022-10-17T05:16:59.760Z,101838.38
2022-10-17T05:20:03.524Z,101835.63
2022-10-17T05:23:07.170Z,101841.69
2022-10-17T05:26:12.957Z,101831.13
2022-10-17T05:29:16.821Z,101828.44
2022-10-17T05:32:20.440Z,101823.19
2022-10-17T05:35:24.195Z,101825.78
2022-10-17T05:38:28.669Z,101823.94
2022-10-17T05:41:33.865Z,101811.53
2022-10-17T05:44:39.271Z,101818.41
2022-10-17T05:47:43.304Z,101820.13
2022-10-17T05:50:47.405Z,101807.84
2022-10-17T05:53:51.030Z,101819.19
2022-10-17T05:56:57.587Z,101814.72
2022-10-17T06:00:01.567Z,101815.66
2022-10-17T06:03:05.301Z,101812.97
2022-10-17T06:06:12.556Z,101812.97
2022-10-17T06:09:16.301Z,101805.84
2022-10-17T06:12:21.271Z,101802.38
2022-10-17T06:15:24.987Z,101792.66
2022-10-17T06:18:28.599Z,101801.38
2022-10-17T06:21:34.828Z,101795.25
2022-10-17T06:24:38.548Z,101804.00
2022-10-17T06:27:43.748Z,101804.78
2022-10-17T06:30:47.417Z,101824.72
2022-10-17T06:33:51.224Z,101821.88
2022-10-17T06:40:03.931Z,101819.84
2022-10-17T06:43:09.000Z,101828.31
2022-10-17T06:46:12.610Z,101833.44
2022-10-17T06:49:16.140Z,101842.97
2022-10-17T06:52:20.056Z,101840.97
2022-10-17T06:55:23.939Z,101847.72
2022-10-17T06:58:29.363Z,101860.69
2022-10-17T07:01:34.322Z,101856.69
2022-10-17T07:04:37.900Z,101846.88
2022-10-17T07:07:44.184Z,101847.31
2022-10-17T07:10:49.836Z,101849.19
2022-10-17T07:13:54.812Z,101858.25
2022-10-17T07:16:58.812Z,101864.91
2022-10-17T07:20:02.378Z,101854.09
2022-10-17T07:23:07.736Z,101855.38
2022-10-17T07:26:14.778Z,101859.13
2022-10-17T07:29:20.025Z,101834.31
2022-10-17T07:32:23.799Z,101843.56
2022-10-17T07:35:27.441Z,101841.22
2022-10-17T07:38:31.831Z,101850.13
2022-10-17T07:41:35.460Z,101846.22
2022-10-17T07:44:40.404Z,101845.28
2022-10-17T07:47:44.216Z,101853.72
2022-10-17T07:50:48.087Z,101856.22
2022-10-17T07:53:51.625Z,101846.41
2022-10-17T07:56:55.172Z,101843.63
2022-10-17T08:00:00.177Z,101836.91
2022-10-17T08:03:04.092Z,101834.41
2022-10-17T08:06:07.700Z,101838.16
2022-10-17T08:09:11.313Z,101843.63
2022-10-17T08:12:16.322Z,101837.19
2022-10-17T08:15:32.133Z,101843.09
2022-10-17T08:18:35.906Z,101840.34
2022-10-17T08:21:41.410Z,101842.50
2022-10-17T08:24:46.279Z,101835.16
2022-10-17T08:27:50.033Z,101833.88
2022-10-17T08:30:54.996Z,101822.38
2022-10-17T08:33:58.555Z,101808.59
2022-10-17T08:37:02.236Z,101819.16
2022-10-17T08:40:07.510Z,101826.03
2022-10-17T08:43:43.673Z,101824.03
2022-10-17T08:46:54.243Z,101818.44
2022-10-17T08:50:03.189Z,101810.69
2022-10-17T08:53:18.251Z,101818.50
2022-10-17T08:56:44.451Z,101816.09
2022-10-17T08:59:55.050Z,101825.53
2022-10-17T09:03:21.727Z,101817.69
2022-10-17T09:06:30.879Z,101821.97
2022-10-17T09:09:45.697Z,101827.44
2022-10-17T09:13:06.866Z,101830.75
2022-10-17T09:16:31.160Z,101826.81
2022-10-17T09:19:42.696Z,101821.41
2022-10-17T09:26:05.224Z,101804.13
2022-10-17T09:29:25.714Z,101795.53
2022-10-17T09:32:30.965Z,101812.53
2022-10-17T09:35:36.733Z,101813.78
2022-10-17T09:38:45.815Z,101812.31
2022-10-17T09:41:54.622Z,101817.53
2022-10-17T09:45:19.339Z,101829.22
2022-10-17T09:48:33.131Z,101812.75
2022-10-17T09:51:40.492Z,101816.28
2022-10-17T09:54:48.134Z,101828.31
2022-10-17T09:57:58.425Z,101825.59
2022-10-17T10:01:23.697Z,101831.22
2022-10-17T10:04:30.413Z,101837.84
2022-10-17T10:07:40.620Z,101841.56
2022-10-17T10:10:46.111Z,101847.19
2022-10-17T10:13:51.725Z,101853.34
2022-10-17T10:16:56.292Z,101853.03
2022-10-17T10:20:00.464Z,101858.91
2022-10-17T10:23:16.061Z,101850.13
2022-10-17T10:26:25.443Z,101858.41
2022-10-17T10:29:34.228Z,101863.56
2022-10-17T10:32:39.326Z,101867.56
2022-10-17T10:35:42.994Z,101870.97
2022-10-17T10:39:01.207Z,101881.88
2022-10-17T10:42:23.260Z,101875.41
2022-10-17T10:45:59.479Z,101878.75
2022-10-17T10:48:58.523Z,101875.44
2022-10-17T10:52:06.831Z,101876.47
2022-10-17T10:55:27.073Z,101887.94
2022-10-17T10:58:43.003Z,101893.63
2022-10-17T11:01:56.816Z,101888.22
2022-10-17T11:05:07.686Z,101879.28
2022-10-17T11:08:24.610Z,101888.34
2022-10-17T11:11:39.135Z,101906.88
2022-10-17T11:14:54.020Z,101918.41
2022-10-17T11:18:04.112Z,101923.41
2022-10-17T11:21:17.163Z,101954.19
2022-10-17T11:24:29.179Z,101953.03
2022-10-17T11:27:36.347Z,101966.78
2022-10-17T11:30:49.338Z,101966.97
2022-10-17T11:34:00.840Z,102002.25
2022-10-17T11:37:14.440Z,101980.28
2022-10-17T11:40:26.743Z,101987.44
2022-10-17T11:43:39.305Z,101992.16
2022-10-17T11:46:47.192Z,101986.50
2022-10-17T11:49:57.092Z,101978.09
2022-10-17T11:53:06.317Z,101981.44
2022-10-17T11:56:15.345Z,101985.28
2022-10-17T12:00:04.127Z,101983.09
2022-10-17T12:03:33.489Z,101981.66
2022-10-17T12:07:01.352Z,101981.72
2022-10-17T12:10:26.082Z,101996.19
2022-10-17T12:13:54.668Z,102032.97
2022-10-17T12:16:59.966Z,102057.94
2022-10-17T12:20:31.827Z,102075.13
2022-10-17T12:23:36.559Z,102105.47
2022-10-17T12:26:40.279Z,102027.16
2022-10-17T12:29:43.852Z,102033.50
2022-10-17T12:33:21.933Z,102049.41
2022-10-17T12:36:49.877Z,102048.41
2022-10-17T12:39:53.448Z,102045.69
2022-10-17T12:42:56.947Z,102036.56
2022-10-17T12:46:02.173Z,102034.59
2022-10-17T12:49:42.108Z,102038.16
2022-10-17T12:53:07.600Z,102037.63
2022-10-17T12:56:11.461Z,102026.84
2022-10-17T12:59:21.739Z,102015.00
2022-10-17T13:02:30.835Z,102000.16
2022-10-17T13:05:39.644Z,102020.81
2022-10-17T13:08:54.505Z,102044.91
2022-10-17T13:12:04.035Z,102052.72
2022-10-17T13:15:09.907Z,102057.06
2022-10-17T13:18:22.195Z,102075.97
2022-10-17T13:21:28.835Z,102072.59
2022-10-17T13:24:36.100Z,102076.03
2022-10-17T13:27:39.886Z,102070.84
2022-10-17T13:30:49.749Z,102070.91
2022-10-17T13:33:59.209Z,102070.00
2022-10-17T13:37:08.143Z,102060.94
2022-10-17T13:40:37.789Z,102058.47
2022-10-17T13:43:43.155Z,102071.97
2022-10-17T13:46:47.693Z,102061.44
2022-10-17T13:49:55.192Z,102062.22
2022-10-17T13:53:32.439Z,102075.34
2022-10-17T13:56:37.033Z,102079.59
2022-10-17T13:59:44.255Z,102091.06
2022-10-17T14:02:48.427Z,102100.91
2022-10-17T14:06:15.828Z,102109.78
2022-10-17T14:09:25.895Z,102119.59
2022-10-17T14:12:29.648Z,102128.44
2022-10-17T14:15:47.784Z,102124.13
2022-10-17T14:18:54.265Z,102133.00
2022-10-17T14:22:18.533Z,102135.59
2022-10-17T14:25:33.183Z,102143.59
2022-10-17T14:28:37.323Z,102150.66
2022-10-17T14:31:40.980Z,102150.84
2022-10-17T14:34:45.182Z,102150.91
2022-10-17T14:37:53.178Z,102152.75
2022-10-17T14:41:40.773Z,102154.59
2022-10-17T14:44:31.821Z,102158.16
2022-10-17T14:47:43.713Z,102163.47
2022-10-17T14:51:10.941Z,102160.88
2022-10-17T14:54:30.291Z,102173.03
2022-10-17T14:57:46.243Z,102162.84
2022-10-17T15:00:50.917Z,102171.81
2022-10-17T15:03:54.463Z,102167.47
2022-10-17T15:06:58.084Z,102175.53
2022-10-17T15:10:01.776Z,102182.53
2022-10-17T15:16:35.771Z,102179.78
2022-10-17T15:19:49.674Z,102191.13
2022-10-17T15:22:53.747Z,102186.81
2022-10-17T15:25:57.352Z,102189.34
2022-10-17T15:29:02.714Z,102193.72
2022-10-17T15:32:07.006Z,102192.88
2022-10-17T15:35:10.959Z,102186.69
2022-10-17T15:38:19.462Z,102193.13
2022-10-17T15:41:25.822Z,102197.41
2022-10-17T15:44:31.387Z,102192.47
2022-10-17T15:47:35.367Z,102187.31
2022-10-17T15:50:38.915Z,102188.25
2022-10-17T15:53:42.584Z,102190.25
2022-10-17T15:56:54.186Z,102195.69
2022-10-17T16:00:01.187Z,102208.00
2022-10-17T16:03:05.187Z,102211.63
2022-10-17T16:06:12.111Z,102205.47
2022-10-17T16:09:17.856Z,102210.81
2022-10-17T16:12:31.215Z,102224.16
2022-10-17T16:15:36.149Z,102227.72
2022-10-17T16:18:39.730Z,102226.94
2022-10-17T16:21:43.405Z,102229.59
2022-10-17T16:24:47.152Z,102236.50
2022-10-17T16:27:52.846Z,102236.56
2022-10-17T16:30:57.855Z,102241.91
2022-10-17T16:34:03.812Z,102238.31
2022-10-17T16:37:07.351Z,102241.88
2022-10-17T16:40:13.005Z,102247.28
2022-10-17T16:43:16.578Z,102243.00
2022-10-17T16:46:22.535Z,102249.13
2022-10-17T16:49:26.175Z,102246.53
2022-10-17T16:52:30.427Z,102249.31
2022-10-17T16:55:34.171Z,102256.41
2022-10-17T16:58:37.854Z,102264.28
2022-10-17T17:01:42.874Z,102264.28
2022-10-17T17:04:46.622Z,102272.28
2022-10-17T17:07:50.304Z,102272.31
2022-10-17T17:10:55.532Z,102289.78
2022-10-17T17:14:01.722Z,102282.81
2022-10-17T17:17:15.364Z,102281.00
2022-10-17T17:20:28.153Z,102279.31
2022-10-17T17:23:33.945Z,102285.44
2022-10-17T17:26:37.793Z,102289.66
2022-10-17T17:29:41.460Z,102302.09
2022-10-17T17:32:46.508Z,102297.78
2022-10-17T17:35:55.815Z,102305.75
2022-10-17T17:39:02.264Z,102313.72
2022-10-17T17:42:05.829Z,102310.28
2022-10-17T17:45:11.131Z,102308.66
2022-10-17T17:48:16.477Z,102309.81
2022-10-17T17:51:26.922Z,102313.56
2022-10-17T17:54:37.185Z,102310.34
2022-10-17T17:57:43.950Z,102308.72
2022-10-17T18:00:47.675Z,102316.75
2022-10-17T18:03:55.522Z,102333.47
2022-10-17T18:06:59.198Z,102345.09
2022-10-17T18:10:02.843Z,102336.38
2022-10-17T18:13:06.553Z,102340.09
2022-10-17T18:16:13.715Z,102343.81
2022-10-17T18:19:18.923Z,102349.94
2022-10-17T18:22:23.003Z,102360.69
2022-10-17T18:25:26.969Z,102350.38
2022-10-17T18:28:31.343Z,102347.81
2022-10-17T18:31:36.509Z,102348.72
2022-10-17T18:34:41.727Z,102355.81
2022-10-17T18:37:45.592Z,102353.16
2022-10-17T18:40:50.797Z,102342.69
2022-10-17T18:43:56.622Z,102334.00
2022-10-17T18:47:03.835Z,102332.41
2022-10-17T18:50:10.058Z,102337.75
2022-10-17T18:53:13.733Z,102344.94
2022-10-17T18:56:18.697Z,102345.91
2022-10-17T18:59:23.676Z,102354.81
2022-10-17T19:02:27.915Z,102354.94
2022-10-17T19:05:34.015Z,102363.78
2022-10-17T19:08:39.032Z,102363.88
2022-10-17T19:11:43.288Z,102356.94
2022-10-17T19:14:47.144Z,102358.78
2022-10-17T19:17:50.911Z,102359.72
2022-10-17T19:20:56.226Z,102359.81
2022-10-17T19:24:03.154Z,102380.22
2022-10-17T19:27:08.665Z,102394.34
2022-10-17T19:30:13.993Z,102410.28
2022-10-17T19:33:17.562Z,102406.81
2022-10-17T19:36:28.933Z,102400.69
2022-10-17T19:39:35.952Z,102396.38
2022-10-17T19:42:39.846Z,102405.13
2022-10-17T19:45:45.676Z,102407.72
2022-10-17T19:48:51.298Z,102413.84
2022-10-17T19:51:56.287Z,102417.38
2022-10-17T19:54:59.784Z,102428.84
2022-10-17T19:58:03.328Z,102433.34
2022-10-17T20:01:07.476Z,102435.16
2022-10-17T20:04:13.082Z,102437.81
2022-10-17T20:07:18.007Z,102438.69
2022-10-17T20:10:22.463Z,102453.66
2022-10-17T20:13:25.938Z,102456.38
2022-10-17T20:16:32.280Z,102462.63
2022-10-17T20:19:35.926Z,102463.56
2022-10-17T20:22:40.964Z,102458.25
2022-10-17T20:25:45.080Z,102463.69
2022-10-17T20:28:49.870Z,102455.78
2022-10-17T20:31:53.500Z,102462.81
2022-10-17T20:34:57.073Z,102472.56
2022-10-17T20:38:01.971Z,102475.28
2022-10-17T20:41:08.346Z,102485.91
2022-10-17T20:44:12.785Z,102487.72
2022-10-17T20:47:32.388Z,102489.53
2022-10-17T20:50:39.892Z,102490.41
2022-10-17T20:53:44.883Z,102494.81
2022-10-17T20:56:48.398Z,102490.47
2022-10-17T20:59:51.951Z,102496.66
2022-10-17T21:06:04.056Z,102504.66
2022-10-17T21:09:09.880Z,102506.44
2022-10-17T21:12:18.180Z,102517.94
2022-10-17T21:15:29.844Z,102514.47
2022-10-17T21:18:33.521Z,102510.97
2022-10-17T21:21:40.873Z,102525.88
2022-10-17T21:24:45.807Z,102524.16
2022-10-17T21:27:49.396Z,102519.78
2022-10-17T21:30:52.895Z,102524.13
2022-10-17T21:34:00.147Z,102519.75
2022-10-17T21:37:04.307Z,102513.56
2022-10-17T21:40:11.191Z,102524.13
2022-10-17T21:43:15.863Z,102519.75
2022-10-17T21:46:21.542Z,102519.75
2022-10-17T21:49:26.970Z,102526.81
2022-10-17T21:52:30.823Z,102527.69
2022-10-17T21:55:38.096Z,102516.22
2022-10-17T21:58:42.149Z,102516.22
2022-10-17T22:01:47.609Z,102524.09
2022-10-17T22:04:51.185Z,102532.03
2022-10-17T22:07:54.799Z,102523.22
2022-10-17T22:11:05.522Z,102517.09
2022-10-17T22:14:14.127Z,102519.78
2022-10-17T22:17:17.728Z,102516.25
2022-10-17T22:20:21.307Z,102518.91
2022-10-17T22:23:26.011Z,102522.44
2022-10-17T22:26:33.227Z,102521.59
2022-10-17T22:29:36.870Z,102526.00
2022-10-17T22:32:40.391Z,102528.63
2022-10-17T22:35:44.939Z,102535.63
2022-10-17T22:38:49.286Z,102518.88
2022-10-17T22:41:54.236Z,102523.34
2022-10-17T22:44:57.987Z,102521.53
2022-10-17T22:48:01.561Z,102533.03
2022-10-17T22:51:05.231Z,102528.63
2022-10-17T22:54:08.819Z,102533.84
2022-10-17T22:57:13.950Z,102537.34
2022-10-17T23:00:18.436Z,102533.00
2022-10-17T23:03:24.093Z,102533.81
2022-10-17T23:06:27.908Z,102542.59
2022-10-17T23:09:31.516Z,102541.72
2022-10-17T23:12:36.479Z,102545.19
2022-10-17T23:15:40.651Z,102545.22
2022-10-17T23:18:44.775Z,102544.41
2022-10-17T23:21:48.335Z,102540.09
2022-10-17T23:24:51.948Z,102541.03
2022-10-17T23:27:57.347Z,102544.59
2022-10-17T23:31:09.967Z,102547.22
2022-10-17T23:34:13.728Z,102544.59
2022-10-17T23:37:17.363Z,102543.75
2022-10-17T23:40:21.042Z,102542.94
2022-10-17T23:43:26.661Z,102554.44
2022-10-17T23:46:30.507Z,102560.63
2022-10-17T23:49:34.239Z,102565.97
2022-10-17T23:52:37.790Z,102571.28
2022-10-17T23:55:41.288Z,102567.75
2022-10-17T23:58:46.308Z,102564.31
